createdAt,value
2023-07-24T04:02:36.568Z,100049.44
2023-07-24T04:05:39.749Z,100040.75
2023-07-24T04:08:42.327Z,100042.06
2023-07-24T04:11:45.590Z,100040.75
2023-07-24T04:14:49.926Z,100043.00
2023-07-24T04:17:52.907Z,100032.44
2023-07-24T04:20:57.045Z,100038.06
2023-07-24T04:24:00.006Z,100038.62
2023-07-24T04:27:02.637Z,100040.59
2023-07-24T04:30:06.134Z,100031.94
2023-07-24T04:33:09.039Z,100040.22
2023-07-24T04:36:11.989Z,100033.28
2023-07-24T04:39:14.763Z,100032.59
2023-07-24T04:42:17.709Z,100036.16
2023-07-24T04:45:22.871Z,100033.72
2023-07-24T04:48:26.946Z,100028.84
2023-07-24T04:51:29.530Z,100031.34
2023-07-24T04:54:32.408Z,100037.19
2023-07-24T04:57:35.108Z,100036.09
2023-07-24T05:00:38.071Z,100040.78
2023-07-24T05:03:40.783Z,100042.59
2023-07-24T05:06:43.693Z,100049.44
2023-07-24T05:09:46.337Z,100047.03
2023-07-24T05:12:49.310Z,100045.81
2023-07-24T05:15:51.984Z,100044.28
2023-07-24T05:18:54.977Z,100046.87
2023-07-24T05:21:57.638Z,100038.38
2023-07-24T05:25:00.488Z,100046.09
2023-07-24T05:28:03.192Z,100045.81
2023-07-24T05:31:06.871Z,100050.75
2023-07-24T05:34:09.536Z,100045.09
2023-07-24T05:37:12.544Z,100049.75
2023-07-24T05:40:15.227Z,100043.81
2023-07-24T05:43:18.118Z,100042.81
2023-07-24T05:46:20.668Z,100043.09
2023-07-24T05:49:23.572Z,100036.25
2023-07-24T05:52:26.234Z,100035.44
2023-07-24T05:55:29.203Z,100037.94
2023-07-24T05:58:32.058Z,100032.44
2023-07-24T06:01:34.994Z,100032.75
2023-07-24T06:04:38.155Z,100027.00
2023-07-24T06:07:40.838Z,100030.03
2023-07-24T06:10:43.747Z,100027.56
2023-07-24T06:13:46.462Z,100015.44
2023-07-24T06:16:49.396Z,100021.50
2023-07-24T06:19:52.028Z,100022.56
2023-07-24T06:22:55.017Z,100010.97
2023-07-24T06:25:57.692Z,100024.75
2023-07-24T06:29:00.585Z,100020.59
2023-07-24T06:32:04.224Z,100025.50
2023-07-24T06:35:07.586Z,100030.37
2023-07-24T06:38:10.627Z,100017.50
2023-07-24T06:41:13.667Z,100024.94
2023-07-24T06:44:16.255Z,100017.66
2023-07-24T06:47:19.295Z,100016.03
2023-07-24T06:50:22.031Z,100017.94
2023-07-24T06:53:24.974Z,100021.16
2023-07-24T06:56:27.901Z,100016.50
2023-07-24T06:59:31.177Z,100013.41
2023-07-24T07:02:33.900Z,100018.34
2023-07-24T07:05:36.972Z,100017.03
2023-07-24T07:08:39.699Z,100019.44
2023-07-24T07:11:44.434Z,100005.81
2023-07-24T07:14:47.217Z,100012.25
2023-07-24T07:17:50.150Z,99998.50
2023-07-24T07:20:54.394Z,99998.44
2023-07-24T07:23:57.306Z,99991.50
2023-07-24T07:26:59.949Z,99985.28
2023-07-24T07:30:02.942Z,99989.53
2023-07-24T07:33:06.969Z,99978.22
2023-07-24T07:36:10.102Z,99973.66
2023-07-24T07:39:12.752Z,99967.47
2023-07-24T07:42:18.156Z,99971.97
2023-07-24T07:45:22.493Z,99966.84
2023-07-24T07:48:25.459Z,99974.19
2023-07-24T07:51:28.328Z,99966.06
2023-07-24T07:54:32.067Z,99959.41
2023-07-24T07:57:39.046Z,99962.63
2023-07-24T08:00:42.207Z,99966.41
2023-07-24T08:03:47.062Z,99973.56
2023-07-24T08:06:49.676Z,99966.19
2023-07-24T08:09:52.635Z,99961.13
2023-07-24T08:12:55.484Z,99958.59
2023-07-24T08:15:58.587Z,99960.34
2023-07-24T08:19:01.196Z,99951.97
2023-07-24T08:22:06.529Z,99952.28
2023-07-24T08:25:09.478Z,99945.78
2023-07-24T08:28:12.415Z,99947.44
2023-07-24T08:31:15.121Z,99939.34
2023-07-24T08:34:18.076Z,99955.53
2023-07-24T08:37:20.906Z,99949.19
2023-07-24T08:40:23.821Z,99946.97
2023-07-24T08:43:26.910Z,99948.37
2023-07-24T08:46:30.700Z,99947.41
2023-07-24T08:49:35.818Z,99947.28
2023-07-24T08:52:43.531Z,99942.00
2023-07-24T08:55:50.024Z,99934.03
2023-07-24T08:58:52.996Z,99932.53
2023-07-24T09:01:56.240Z,99929.69
2023-07-24T09:04:59.504Z,99924.53
2023-07-24T09:08:02.072Z,99920.13
2023-07-24T09:11:06.869Z,99922.44
2023-07-24T09:14:14.604Z,99903.81
2023-07-24T09:17:25.676Z,99910.84
2023-07-24T09:20:39.800Z,99909.59
2023-07-24T09:23:44.542Z,99907.06
2023-07-24T09:26:50.318Z,99898.28
2023-07-24T09:29:53.588Z,99903.22
2023-07-24T09:32:56.466Z,99899.91
2023-07-24T09:36:02.919Z,99906.03
2023-07-24T09:39:07.393Z,99897.22
2023-07-24T09:42:10.350Z,99893.78
2023-07-24T09:45:12.945Z,99890.19
2023-07-24T09:48:40.781Z,99876.72
2023-07-24T09:51:40.283Z,99875.88
2023-07-24T09:55:12.369Z,99864.06
2023-07-24T09:58:16.842Z,99861.28
2023-07-24T10:01:19.898Z,99854.16
2023-07-24T10:04:25.616Z,99861.53
2023-07-24T10:07:28.862Z,99854.97
2023-07-24T10:10:33.425Z,99852.28
2023-07-24T10:13:37.813Z,99853.28
2023-07-24T10:16:41.758Z,99838.78
2023-07-24T10:19:44.529Z,99834.94
2023-07-24T10:22:47.517Z,99826.69
2023-07-24T10:25:51.405Z,99831.59
2023-07-24T10:28:55.294Z,99828.00
2023-07-24T10:31:58.175Z,99819.25
2023-07-24T10:35:11.637Z,99811.03
2023-07-24T10:38:16.785Z,99808.81
2023-07-24T10:41:19.671Z,99802.63
2023-07-24T10:44:32.622Z,99795.41
2023-07-24T10:47:36.035Z,99799.81
2023-07-24T10:50:40.143Z,99793.41
2023-07-24T10:53:46.391Z,99794.00
2023-07-24T10:56:51.865Z,99781.69
2023-07-24T10:59:55.126Z,99786.97
2023-07-24T11:02:57.893Z,99786.34
2023-07-24T11:06:01.044Z,99772.19
2023-07-24T11:09:03.842Z,99766.50
2023-07-24T11:12:17.534Z,99769.44
2023-07-24T11:15:27.056Z,99757.66
2023-07-24T11:18:40.667Z,99749.78
2023-07-24T11:21:54.015Z,99738.84
2023-07-24T11:24:58.223Z,99735.69
2023-07-24T11:28:00.917Z,99733.69
2023-07-24T11:31:04.196Z,99727.56
2023-07-24T11:34:07.394Z,99718.53
2023-07-24T11:37:10.459Z,99719.25
2023-07-24T11:40:15.833Z,99711.34
2023-07-24T11:43:22.258Z,99702.25
2023-07-24T11:46:26.051Z,99685.00
2023-07-24T11:49:32.070Z,99685.62
2023-07-24T11:52:49.365Z,99668.97
2023-07-24T11:55:53.749Z,99660.66
2023-07-24T11:58:56.373Z,99651.56
2023-07-24T12:01:59.397Z,99657.19
2023-07-24T12:05:02.503Z,99658.50
2023-07-24T12:08:05.550Z,99641.28
2023-07-24T12:11:18.747Z,99637.22
2023-07-24T12:14:21.432Z,99630.75
2023-07-24T12:17:24.379Z,99638.13
2023-07-24T12:20:27.303Z,99620.00
2023-07-24T12:23:30.487Z,99634.28
2023-07-24T12:26:33.211Z,99621.34
2023-07-24T12:29:36.261Z,99625.00
2023-07-24T12:32:39.400Z,99608.75
2023-07-24T12:35:42.518Z,99608.75
2023-07-24T12:38:45.374Z,99604.66
2023-07-24T12:41:51.150Z,99608.56
2023-07-24T12:44:53.931Z,99586.09
2023-07-24T12:47:58.199Z,99585.31
2023-07-24T12:51:02.552Z,99581.87
2023-07-24T12:54:09.061Z,99572.25
2023-07-24T12:57:27.590Z,99572.97
2023-07-24T13:00:31.464Z,99563.97
2023-07-24T13:03:34.526Z,99566.97
2023-07-24T13:06:37.638Z,99545.34
2023-07-24T13:09:40.411Z,99551.00
2023-07-24T13:12:43.447Z,99542.03
2023-07-24T13:15:46.084Z,99546.84
2023-07-24T13:18:50.633Z,99527.06
2023-07-24T13:21:53.365Z,99531.59
2023-07-24T13:24:56.337Z,99523.72
2023-07-24T13:27:59.098Z,99526.59
2023-07-24T13:31:13.070Z,99524.28
2023-07-24T13:34:19.018Z,99508.06
2023-07-24T13:37:22.673Z,99500.13
2023-07-24T13:40:25.334Z,99500.84
2023-07-24T13:43:29.767Z,99483.59
2023-07-24T13:46:32.506Z,99491.41
2023-07-24T13:49:35.615Z,99487.84
2023-07-24T13:52:39.079Z,99492.75
2023-07-24T13:55:41.903Z,99482.03
2023-07-24T13:58:44.481Z,99472.56
2023-07-24T14:01:50.368Z,99476.63
2023-07-24T14:04:54.637Z,99468.41
2023-07-24T14:07:57.288Z,99468.28
2023-07-24T14:11:00.455Z,99457.31
2023-07-24T14:14:03.299Z,99454.81
2023-07-24T14:17:06.557Z,99452.66
2023-07-24T14:20:09.884Z,99431.38
2023-07-24T14:23:13.063Z,99428.87
2023-07-24T14:26:15.632Z,99426.09
2023-07-24T14:29:19.188Z,99417.59
2023-07-24T14:32:21.798Z,99411.25
2023-07-24T14:35:24.802Z,99400.50
2023-07-24T14:38:27.538Z,99401.16
2023-07-24T14:41:31.002Z,99392.66
2023-07-24T14:44:34.197Z,99386.13
2023-07-24T14:47:37.221Z,99379.22
2023-07-24T14:50:40.194Z,99379.59
2023-07-24T14:53:43.149Z,99369.22
2023-07-24T14:56:56.979Z,99356.47
2023-07-24T15:00:05.344Z,99356.88
2023-07-24T15:03:08.068Z,99350.41
2023-07-24T15:06:11.161Z,99348.69
2023-07-24T15:09:13.744Z,99347.97
2023-07-24T15:12:16.759Z,99358.06
2023-07-24T15:15:19.495Z,99354.00
2023-07-24T15:18:22.534Z,99362.16
2023-07-24T15:21:26.604Z,99357.53
2023-07-24T15:24:29.805Z,99337.34
2023-07-24T15:27:32.579Z,99330.66
2023-07-24T15:30:35.453Z,99335.56
2023-07-24T15:33:38.131Z,99338.66
2023-07-24T15:36:41.076Z,99332.50
2023-07-24T15:39:43.752Z,99331.53
2023-07-24T15:42:48.003Z,99316.97
2023-07-24T15:45:51.014Z,99314.00
2023-07-24T15:48:54.017Z,99326.34
2023-07-24T15:51:56.731Z,99322.22
2023-07-24T15:55:00.735Z,99333.81
